Time;durP1;ratioP1;P1;durP2;ratioP2;P2;SDS_P1;SDS_P2;PMS_P1;PMS_P2;Temp;Humidity;BMP_temperature;BMP_pressure;BME280_temperature;BME280_humidity;BME280_pressure;Samples;Min_cycle;Max_cycle;Signal;HPM_P1;HPM_P2
2022/03/11 00:02:09;;;;;;;7.20;4.87;;;5.00;1.00;;;;;;5057031;28;20682;-78
2022/03/11 00:04:35;;;;;;;7.43;4.97;;;5.10;1.00;;;;;;5057080;28;20259;-77
2022/03/11 00:07:00;;;;;;;7.90;4.87;;;5.10;1.00;;;;;;5056508;28;20218;-77
2022/03/11 00:09:26;;;;;;;7.57;4.83;;;5.20;1.00;;;;;;5056590;28;20167;-78
2022/03/11 00:11:51;;;;;;;8.63;4.90;;;5.20;1.00;;;;;;5056410;28;20712;-77
2022/03/11 00:14:18;;;;;;;8.63;4.93;;;5.30;1.00;;;;;;5056443;28;20250;-78
2022/03/11 00:16:43;;;;;;;8.60;4.93;;;5.40;1.00;;;;;;5057421;28;20160;-76
2022/03/11 00:19:09;;;;;;;7.47;5.10;;;5.50;1.00;;;;;;5095673;22;20234;-74
2022/03/11 00:21:34;;;;;;;8.47;5.27;;;5.60;1.00;;;;;;5066584;28;20214;-74
2022/03/11 00:24:00;;;;;;;7.93;4.87;;;5.60;1.00;;;;;;5055842;28;20186;-75
2022/03/11 00:26:26;;;;;;;7.80;4.77;;;5.70;1.00;;;;;;5056518;28;20168;-76
2022/03/11 00:28:51;;;;;;;7.07;4.50;;;5.70;1.00;;;;;;5055604;28;20573;-75
2022/03/11 00:31:17;;;;;;;7.90;5.27;;;5.70;1.00;;;;;;5055414;28;20175;-75
2022/03/11 00:33:43;;;;;;;5.67;4.20;;;5.80;1.00;;;;;;5055543;28;20168;-75
2022/03/11 00:36:08;;;;;;;8.47;4.90;;;5.80;1.00;;;;;;5054249;28;20180;-75
2022/03/11 00:38:34;;;;;;;7.23;5.30;;;5.90;1.00;;;;;;5055546;28;20701;-74
2022/03/11 00:40:59;;;;;;;6.90;4.70;;;6.00;1.00;;;;;;5054075;28;20171;-75
2022/03/11 00:43:26;;;;;;;6.77;5.17;;;6.00;1.00;;;;;;5055574;28;20178;-75
2022/03/11 00:45:53;;;;;;;8.97;5.03;;;6.00;1.00;;;;;;5055235;28;20171;-75
2022/03/11 00:48:19;;;;;;;8.03;4.93;;;6.10;1.00;;;;;;5053840;28;20226;-75
2022/03/11 00:50:46;;;;;;;5.43;4.30;;;6.20;1.00;;;;;;5055198;28;20164;-75
2022/03/11 00:53:11;;;;;;;5.43;4.10;;;6.30;1.00;;;;;;5056094;28;20191;-75
2022/03/11 00:55:37;;;;;;;8.27;5.10;;;6.30;1.00;;;;;;5055005;28;20184;-75
2022/03/11 00:58:02;;;;;;;6.93;4.80;;;6.40;1.00;;;;;;5054909;28;20320;-75
2022/03/11 01:00:28;;;;;;;7.40;4.67;;;6.40;1.00;;;;;;5054939;28;20229;-75
2022/03/11 01:02:54;;;;;;;9.43;4.63;;;6.40;1.00;;;;;;5054996;28;20249;-75
2022/03/11 01:05:22;;;;;;;6.77;4.50;;;6.40;1.00;;;;;;5054862;28;20172;-75
2022/03/11 01:07:48;;;;;;;8.40;5.17;;;6.40;1.00;;;;;;5054324;28;20190;-75
2022/03/11 01:10:13;;;;;;;6.87;4.57;;;6.40;1.00;;;;;;5055777;28;20196;-75
2022/03/11 01:12:39;;;;;;;7.93;5.00;;;6.40;1.00;;;;;;5053370;28;20196;-75
2022/03/11 01:15:07;;;;;;;8.40;5.20;;;6.30;1.00;;;;;;5054742;28;20168;-75
2022/03/11 01:17:33;;;;;;;6.83;4.80;;;6.30;1.00;;;;;;5053057;28;20670;-74
2022/03/11 01:19:59;;;;;;;6.73;4.53;;;6.30;1.00;;;;;;5065550;28;20185;-75
2022/03/11 01:22:24;;;;;;;8.53;5.30;;;6.20;1.00;;;;;;5073233;28;20646;-75
2022/03/11 01:24:50;;;;;;;7.03;4.93;;;6.20;1.00;;;;;;5074489;28;20253;-74
2022/03/11 01:27:16;;;;;;;7.90;4.80;;;6.20;1.00;;;;;;5074429;28;20179;-74
2022/03/11 01:29:41;;;;;;;8.10;5.17;;;6.10;1.00;;;;;;5074661;28;20192;-75
2022/03/11 01:32:07;;;;;;;9.47;4.87;;;6.10;1.00;;;;;;5074552;28;20195;-75
2022/03/11 01:34:32;;;;;;;6.80;4.90;;;6.10;1.00;;;;;;5055703;28;20233;-75
2022/03/11 01:36:58;;;;;;;7.50;5.00;;;6.00;1.00;;;;;;5054293;28;20168;-75
2022/03/11 01:39:23;;;;;;;7.57;5.10;;;6.00;1.00;;;;;;5052907;28;20199;-75
2022/03/11 01:41:49;;;;;;;7.30;5.03;;;6.00;1.00;;;;;;5052909;28;20171;-75
2022/03/11 01:44:15;;;;;;;8.23;4.70;;;6.10;1.00;;;;;;5054159;28;20581;-75
2022/03/11 01:46:40;;;;;;;5.83;4.43;;;6.00;1.00;;;;;;5053123;28;20429;-75
2022/03/11 01:49:09;;;;;;;7.00;4.80;;;6.00;1.00;;;;;;5055000;28;20578;-75
2022/03/11 01:51:38;;;;;;;12.13;4.90;;;6.00;1.00;;;;;;5053907;28;20196;-75
2022/03/11 01:54:04;;;;;;;7.20;4.73;;;5.90;1.00;;;;;;5053970;28;20202;-75
2022/03/11 01:56:32;;;;;;;7.37;5.27;;;5.80;1.00;;;;;;5054094;28;20204;-75
2022/03/11 01:58:57;;;;;;;8.43;4.87;;;5.90;1.00;;;;;;5054317;28;20597;-75
2022/03/11 02:01:24;;;;;;;7.27;4.80;;;5.80;1.00;;;;;;5054027;28;20175;-76
2022/03/11 02:03:50;;;;;;;8.93;5.20;;;5.70;1.00;;;;;;5052519;28;20171;-75
2022/03/11 02:06:17;;;;;;;7.73;4.80;;;5.70;1.00;;;;;;5066972;28;20273;-75
2022/03/11 02:08:43;;;;;;;7.17;5.50;;;5.60;1.00;;;;;;5073070;28;20199;-74
2022/03/11 02:11:11;;;;;;;6.80;4.73;;;5.60;1.00;;;;;;5073571;28;20227;-75
2022/03/11 02:13:48;;;;;;;7.00;5.07;;;5.60;1.00;;;;;;5072555;28;20585;-75
2022/03/11 02:16:25;;;;;;;8.23;4.63;;;5.50;1.00;;;;;;5072191;28;20174;-75
2022/03/11 02:18:51;;;;;;;5.87;4.27;;;5.50;1.00;;;;;;5070186;28;20259;-74
2022/03/11 02:21:20;;;;;;;6.10;4.53;;;5.40;1.00;;;;;;5071676;28;20545;-75
2022/03/11 02:23:49;;;;;;;6.27;4.63;;;5.30;1.00;;;;;;5071968;28;20171;-75
2022/03/11 02:26:17;;;;;;;7.10;4.90;;;5.30;1.00;;;;;;5073311;28;20167;-75
2022/03/11 02:28:46;;;;;;;6.77;4.90;;;5.20;1.00;;;;;;5073330;28;20186;-75
2022/03/11 02:31:12;;;;;;;7.70;5.20;;;5.10;1.00;;;;;;5064963;28;20171;-75
2022/03/11 02:33:38;;;;;;;8.60;5.20;;;5.00;1.00;;;;;;5051938;28;20193;-75
2022/03/11 02:36:04;;;;;;;7.33;5.00;;;5.00;1.00;;;;;;5051898;28;20641;-75
2022/03/11 02:38:30;;;;;;;8.03;5.53;;;4.90;1.00;;;;;;5053084;28;20728;-74
2022/03/11 02:40:56;;;;;;;6.90;4.80;;;4.90;1.00;;;;;;5053129;28;20176;-75
2022/03/11 02:43:22;;;;;;;5.83;4.50;;;4.80;1.00;;;;;;5053418;28;20210;-76
2022/03/11 02:45:48;;;;;;;7.53;5.17;;;4.80;1.00;;;;;;5053336;28;20227;-75
2022/03/11 02:48:13;;;;;;;8.57;5.10;;;4.60;1.00;;;;;;5054136;28;20234;-75
2022/03/11 02:50:39;;;;;;;6.33;4.70;;;4.50;1.00;;;;;;5053287;28;20182;-75
2022/03/11 02:53:05;;;;;;;8.83;5.70;;;4.50;1.00;;;;;;5051677;28;20286;-76
2022/03/11 02:55:30;;;;;;;9.43;5.67;;;4.40;1.00;;;;;;5052997;28;20580;-75
2022/03/11 02:57:56;;;;;;;6.90;5.27;;;4.40;1.00;;;;;;5052825;28;20237;-75
2022/03/11 03:00:22;;;;;;;8.10;5.13;;;4.40;1.00;;;;;;5051605;28;20233;-75
2022/03/11 03:02:47;;;;;;;8.27;5.17;;;4.30;1.00;;;;;;5052860;28;20164;-75
2022/03/11 03:05:16;;;;;;;9.23;5.40;;;4.30;1.00;;;;;;5070531;28;20182;-75
2022/03/11 03:07:42;;;;;;;8.87;5.57;;;4.20;1.00;;;;;;5071496;28;20252;-75
2022/03/11 03:10:08;;;;;;;7.67;5.03;;;4.20;1.00;;;;;;5073170;28;20265;-75
2022/03/11 03:12:34;;;;;;;8.63;4.97;;;4.20;1.00;;;;;;5072354;28;20262;-75
2022/03/11 03:15:00;;;;;;;9.80;5.80;;;4.20;1.00;;;;;;5072791;28;20171;-75
2022/03/11 03:17:26;;;;;;;8.63;5.57;;;4.20;1.00;;;;;;5072661;28;20175;-76
2022/03/11 03:19:51;;;;;;;7.70;4.87;;;4.20;1.00;;;;;;5071072;28;20653;-75
2022/03/11 03:22:17;;;;;;;9.27;5.37;;;4.20;1.00;;;;;;5072788;28;20207;-75
2022/03/11 03:24:43;;;;;;;10.90;6.30;;;4.20;1.00;;;;;;5071735;28;20175;-75
2022/03/11 03:27:09;;;;;;;9.53;5.20;;;4.30;1.00;;;;;;5072875;28;20174;-75
2022/03/11 03:29:35;;;;;;;8.80;5.33;;;4.20;1.00;;;;;;5071442;28;20636;-75
2022/03/11 03:32:01;;;;;;;8.47;5.43;;;4.20;1.00;;;;;;5075359;28;20260;-75
2022/03/11 03:34:29;;;;;;;8.53;5.63;;;4.30;1.00;;;;;;5065100;28;20643;-75
2022/03/11 03:36:56;;;;;;;8.90;6.33;;;4.30;1.00;;;;;;5056607;28;20178;-75
2022/03/11 03:39:22;;;;;;;11.80;6.07;;;4.30;1.00;;;;;;5056414;28;20221;-75
2022/03/11 03:41:47;;;;;;;10.30;6.17;;;4.40;1.00;;;;;;5055194;28;20176;-76
2022/03/11 03:44:13;;;;;;;10.73;5.93;;;4.50;1.00;;;;;;5056354;28;20203;-75
2022/03/11 03:46:38;;;;;;;8.87;5.40;;;4.50;1.00;;;;;;5055170;28;20285;-75
2022/03/11 03:49:04;;;;;;;11.43;5.60;;;4.60;1.00;;;;;;5057306;28;20704;-77
2022/03/11 03:51:29;;;;;;;9.67;6.07;;;4.70;1.00;;;;;;5056181;28;20191;-75
2022/03/11 03:53:55;;;;;;;9.63;6.20;;;4.80;1.00;;;;;;5056504;28;20178;-75
2022/03/11 03:56:20;;;;;;;8.50;5.83;;;4.80;1.00;;;;;;5054952;28;20175;-75
2022/03/11 03:58:46;;;;;;;9.73;6.63;;;4.80;1.00;;;;;;5056152;28;20188;-75
2022/03/11 04:01:11;;;;;;;10.00;6.20;;;4.80;1.00;;;;;;5056577;28;20172;-76
2022/03/11 04:03:37;;;;;;;9.43;5.73;;;4.80;1.00;;;;;;5056004;28;20243;-75
2022/03/11 04:06:03;;;;;;;8.57;6.03;;;4.80;1.00;;;;;;5064869;28;20183;-75
2022/03/11 04:08:30;;;;;;;9.47;6.40;;;4.90;1.00;;;;;;5075488;28;20195;-75
2022/03/11 04:10:55;;;;;;;11.23;6.20;;;4.90;1.00;;;;;;5075955;28;20200;-75
2022/03/11 04:13:21;;;;;;;9.77;6.17;;;4.90;1.00;;;;;;5075723;28;20199;-75
2022/03/11 04:15:46;;;;;;;10.47;6.10;;;4.90;1.00;;;;;;5075808;28;20246;-75
2022/03/11 04:18:12;;;;;;;10.60;6.37;;;4.90;1.00;;;;;;5075552;28;20581;-75
2022/03/11 04:20:38;;;;;;;13.17;6.27;;;4.90;1.00;;;;;;5076310;28;20160;-75
2022/03/11 04:23:04;;;;;;;10.80;5.80;;;4.90;1.00;;;;;;5060528;28;20270;-76
2022/03/11 04:25:30;;;;;;;11.57;7.03;;;4.90;1.00;;;;;;5055830;28;20761;-76
2022/03/11 04:27:55;;;;;;;8.97;5.93;;;4.90;1.00;;;;;;5055519;28;20674;-75
2022/03/11 04:30:21;;;;;;;9.93;6.43;;;4.90;1.00;;;;;;5055761;28;20262;-76
2022/03/11 04:32:46;;;;;;;12.23;6.73;;;4.90;1.00;;;;;;5055723;28;20274;-75
2022/03/11 04:35:12;;;;;;;11.13;7.07;;;4.90;1.00;;;;;;5054154;28;20576;-75
2022/03/11 04:37:37;;;;;;;12.00;6.17;;;4.90;1.00;;;;;;5055128;28;20304;-75
2022/03/11 04:40:05;;;;;;;9.03;6.27;;;4.90;1.00;;;;;;5055595;28;20171;-75
2022/03/11 04:42:30;;;;;;;11.20;6.80;;;4.90;1.00;;;;;;5054503;28;20168;-76
2022/03/11 04:44:56;;;;;;;10.03;6.07;;;4.90;1.00;;;;;;5055320;28;20239;-75
2022/03/11 04:47:22;;;;;;;10.37;7.00;;;5.00;1.00;;;;;;5055148;28;20168;-75
2022/03/11 04:49:47;;;;;;;10.57;6.17;;;5.10;1.00;;;;;;5054174;28;20210;-75
2022/03/11 04:52:13;;;;;;;9.60;6.43;;;5.00;1.00;;;;;;5055032;28;20198;-75
2022/03/11 04:54:38;;;;;;;8.83;6.27;;;5.00;1.00;;;;;;5065269;28;20163;-75
2022/03/11 04:57:04;;;;;;;12.13;7.57;;;5.00;1.00;;;;;;5075091;28;20170;-75
2022/03/11 04:59:30;;;;;;;10.83;6.70;;;5.00;1.00;;;;;;5074923;28;20685;-75
2022/03/11 05:01:55;;;;;;;12.70;7.77;;;5.00;1.00;;;;;;5075253;28;20548;-77
2022/03/11 05:04:21;;;;;;;11.60;7.10;;;5.00;1.00;;;;;;5073602;28;20186;-75
2022/03/11 05:06:46;;;;;;;11.40;6.83;;;5.00;1.00;;;;;;5074836;28;20181;-75
2022/03/11 05:09:12;;;;;;;11.13;7.30;;;5.10;1.00;;;;;;5074966;28;20202;-76
2022/03/11 05:11:37;;;;;;;13.50;7.97;;;5.10;1.00;;;;;;5058442;28;20236;-76
2022/03/11 05:14:03;;;;;;;13.83;7.60;;;5.10;1.00;;;;;;5053811;28;20203;-76
2022/03/11 05:16:28;;;;;;;12.30;7.57;;;5.10;1.00;;;;;;5054637;28;20172;-75
2022/03/11 05:18:55;;;;;;;12.80;7.20;;;5.10;1.00;;;;;;5056301;28;20207;-75
2022/03/11 05:21:20;;;;;;;11.47;7.87;;;5.10;1.00;;;;;;5074577;28;20213;-75
2022/03/11 05:23:46;;;;;;;11.37;7.40;;;5.20;1.00;;;;;;5074488;28;20163;-75
2022/03/11 05:26:24;;;;;;;11.97;7.60;;;5.10;1.00;;;;;;5074499;28;20258;-75
2022/03/11 05:28:55;;;;;;;12.73;7.63;;;5.10;1.00;;;;;;5073106;28;20195;-75
2022/03/11 05:31:22;;;;;;;12.13;8.40;;;5.10;1.00;;;;;;5073473;28;20199;-75
2022/03/11 05:33:48;;;;;;;13.80;8.13;;;5.20;1.00;;;;;;5061925;28;20172;-75
2022/03/11 05:36:15;;;;;;;11.37;8.07;;;5.10;1.00;;;;;;5052885;28;20190;-75
2022/03/11 05:38:40;;;;;;;12.00;8.03;;;5.10;1.00;;;;;;5054093;28;20184;-73
2022/03/11 05:41:06;;;;;;;16.57;8.80;;;5.20;1.00;;;;;;5052837;28;20270;-75
2022/03/11 05:43:31;;;;;;;12.87;8.17;;;5.30;1.00;;;;;;5052756;28;20207;-74
2022/03/11 05:45:57;;;;;;;13.37;8.50;;;5.20;1.00;;;;;;5054079;28;20258;-75
2022/03/11 05:48:22;;;;;;;13.57;8.40;;;5.20;1.00;;;;;;5054036;28;20610;-75
2022/03/11 05:50:48;;;;;;;15.20;9.23;;;5.20;1.00;;;;;;5070580;28;20187;-75
2022/03/11 05:53:13;;;;;;;14.60;8.43;;;5.10;1.00;;;;;;5072553;28;20226;-75
2022/03/11 05:55:39;;;;;;;16.93;9.10;;;5.10;1.00;;;;;;5073938;28;20568;-75
2022/03/11 05:58:04;;;;;;;14.57;8.57;;;5.10;1.00;;;;;;5073867;28;20274;-75
2022/03/11 06:00:30;;;;;;;13.90;9.00;;;5.10;1.00;;;;;;5072521;28;20257;-76
2022/03/11 06:02:55;;;;;;;12.57;8.23;;;5.10;1.00;;;;;;5073670;28;20642;-75
2022/03/11 06:05:21;;;;;;;12.77;8.97;;;5.20;1.00;;;;;;5068408;28;20232;-76
2022/03/11 06:07:46;;;;;;;12.50;8.23;;;5.20;1.00;;;;;;5060134;28;20214;-75
2022/03/11 06:10:12;;;;;;;13.17;8.47;;;5.20;1.00;;;;;;5062590;28;20223;-76
2022/03/11 06:12:38;;;;;;;13.20;8.83;;;5.20;1.00;;;;;;5070352;28;20210;-76
2022/03/11 06:15:08;;;;;;;15.53;9.27;;;5.20;1.00;;;;;;5069587;28;20174;-76
2022/03/11 06:17:33;;;;;;;23.60;9.53;;;5.20;1.00;;;;;;5063938;28;20630;-75
2022/03/11 06:22:29;;;;;;;15.70;9.30;;;5.20;1.00;;;;;;5093703;23;20300;-81
2022/03/11 06:24:56;;;;;;;14.20;9.63;;;5.20;1.00;;;;;;5074609;28;20638;-82
2022/03/11 06:27:24;;;;;;;12.87;8.97;;;5.30;1.00;;;;;;5073753;28;20214;-82
2022/03/11 06:29:50;;;;;;;13.87;8.97;;;5.30;1.00;;;;;;5080165;28;20164;-82
2022/03/11 06:32:15;;;;;;;17.23;10.50;;;5.30;1.00;;;;;;5058939;28;20206;-83
2022/03/11 06:34:41;;;;;;;14.40;10.23;;;5.30;1.00;;;;;;5059721;28;20245;-81
2022/03/11 06:37:06;;;;;;;17.20;9.53;;;5.30;1.00;;;;;;5058264;28;20175;-82
2022/03/11 06:39:32;;;;;;;16.10;10.37;;;5.30;1.00;;;;;;5057371;28;20176;-82
2022/03/11 06:41:58;;;;;;;16.63;9.87;;;5.30;1.00;;;;;;5061232;28;20195;-82
2022/03/11 06:44:23;;;;;;;16.83;10.57;;;5.30;1.00;;;;;;5062494;28;20183;-82
2022/03/11 06:46:49;;;;;;;14.83;9.83;;;5.30;1.00;;;;;;5061117;28;20202;-82
2022/03/11 06:49:14;;;;;;;15.53;10.60;;;5.30;1.00;;;;;;5059581;28;20642;-82
2022/03/11 06:51:40;;;;;;;14.67;9.87;;;5.30;1.00;;;;;;5052911;28;20293;-82
2022/03/11 06:54:07;;;;;;;13.90;9.40;;;5.40;1.00;;;;;;5053185;28;20172;-82
2022/03/11 06:56:36;;;;;;;15.17;10.80;;;5.40;1.00;;;;;;5054701;28;20183;-82
2022/03/11 06:59:03;;;;;;;16.60;11.17;;;5.40;1.00;;;;;;5055610;28;20175;-81
2022/03/11 07:01:29;;;;;;;16.50;10.30;;;5.40;1.00;;;;;;5056231;28;20605;-82
2022/03/11 07:03:54;;;;;;;19.10;11.47;;;5.40;1.00;;;;;;5056526;28;20168;-82
2022/03/11 07:06:20;;;;;;;15.57;10.43;;;5.40;1.00;;;;;;5054411;28;20209;-81
2022/03/11 07:08:46;;;;;;;15.13;10.60;;;5.40;1.00;;;;;;5052576;28;20171;-82
2022/03/11 07:11:11;;;;;;;14.50;10.33;;;5.50;1.00;;;;;;5053899;28;20674;-82
2022/03/11 07:13:37;;;;;;;16.93;10.97;;;5.70;1.00;;;;;;5053289;28;20273;-82
2022/03/11 07:16:04;;;;;;;16.40;10.07;;;5.60;1.00;;;;;;5052598;28;20180;-82
2022/03/11 07:18:29;;;;;;;16.03;11.77;;;5.60;1.00;;;;;;5053685;28;20167;-81
2022/03/11 07:20:55;;;;;;;16.67;11.13;;;5.70;1.00;;;;;;5052246;28;20694;-82
2022/03/11 07:23:21;;;;;;;17.53;10.67;;;5.70;1.00;;;;;;5052822;28;20190;-82
2022/03/11 07:25:46;;;;;;;16.17;11.10;;;5.70;1.00;;;;;;5052545;28;20183;-82
2022/03/11 07:28:12;;;;;;;14.67;10.77;;;5.80;1.00;;;;;;5052684;28;20244;-82
2022/03/11 07:30:38;;;;;;;18.07;11.07;;;5.80;1.00;;;;;;5052401;28;20309;-82
2022/03/11 07:33:06;;;;;;;19.50;11.60;;;5.90;1.00;;;;;;5053634;28;20298;-82
2022/03/11 07:35:32;;;;;;;18.43;11.30;;;5.90;1.00;;;;;;5053659;28;20164;-83
2022/03/11 07:37:57;;;;;;;16.83;10.93;;;5.90;1.00;;;;;;5053922;28;20541;-81
2022/03/11 07:40:23;;;;;;;19.63;11.00;;;5.90;1.00;;;;;;5053058;28;20172;-81
2022/03/11 07:42:48;;;;;;;15.97;11.10;;;6.00;1.00;;;;;;5053361;28;20228;-82
2022/03/11 07:45:15;;;;;;;15.03;10.93;;;6.10;1.00;;;;;;5053400;28;20231;-82
2022/03/11 07:47:41;;;;;;;20.13;11.70;;;6.10;1.00;;;;;;5053537;28;20164;-82
2022/03/11 07:50:09;;;;;;;19.50;10.47;;;6.10;1.00;;;;;;5051829;28;20206;-82
2022/03/11 07:52:35;;;;;;;15.73;10.33;;;6.20;1.00;;;;;;5053013;28;20249;-82
2022/03/11 07:55:01;;;;;;;16.23;10.50;;;6.20;1.00;;;;;;5052779;28;20706;-80
2022/03/11 07:57:26;;;;;;;18.10;11.43;;;6.30;1.00;;;;;;5053249;28;20175;-82
2022/03/11 07:59:52;;;;;;;19.63;11.20;;;6.30;1.00;;;;;;5051941;28;20184;-82
2022/03/11 08:02:17;;;;;;;15.60;10.77;;;6.30;1.00;;;;;;5051935;28;20206;-82
2022/03/11 08:04:43;;;;;;;17.27;11.33;;;6.40;1.00;;;;;;5053024;28;20176;-82
2022/03/11 08:07:11;;;;;;;15.73;10.67;;;6.40;1.00;;;;;;5053099;28;20206;-82
2022/03/11 08:09:42;;;;;;;18.63;11.60;;;6.50;1.00;;;;;;5053934;28;20164;-82
2022/03/11 08:12:09;;;;;;;18.23;11.80;;;6.50;1.00;;;;;;5051959;28;20203;-82
2022/03/11 08:14:34;;;;;;;15.53;11.33;;;6.60;1.00;;;;;;5052074;28;20720;-82
2022/03/11 08:17:00;;;;;;;20.47;10.43;;;6.60;1.00;;;;;;5052055;28;20258;-82
2022/03/11 08:19:26;;;;;;;22.07;11.00;;;6.60;1.00;;;;;;5056224;28;20168;-82
2022/03/11 08:21:52;;;;;;;21.20;11.70;;;6.70;1.00;;;;;;5057740;28;20266;-82
2022/03/11 08:24:18;;;;;;;17.03;11.43;;;6.70;1.00;;;;;;5059649;28;20176;-83
2022/03/11 08:26:44;;;;;;;17.27;11.63;;;6.80;1.00;;;;;;5057517;28;20709;-83
2022/03/11 08:29:10;;;;;;;22.00;11.40;;;6.90;1.00;;;;;;5058753;28;20173;-83
2022/03/11 08:31:36;;;;;;;16.40;10.67;;;6.90;1.00;;;;;;5056906;28;20192;-83
2022/03/11 08:34:02;;;;;;;17.67;11.17;;;7.20;1.00;;;;;;5057746;28;20176;-82
2022/03/11 08:36:28;;;;;;;16.00;11.27;;;7.10;1.00;;;;;;5057847;28;20308;-83
2022/03/11 08:38:53;;;;;;;18.00;11.57;;;7.10;1.00;;;;;;5056722;28;20617;-83
2022/03/11 08:41:20;;;;;;;16.23;10.70;;;7.10;1.00;;;;;;5058113;28;20274;-82
2022/03/11 08:43:49;;;;;;;15.53;10.97;;;7.20;1.00;;;;;;5058279;28;20194;-83
2022/03/11 08:46:15;;;;;;;17.47;10.60;;;7.30;1.00;;;;;;5058394;28;20218;-83
2022/03/11 08:48:41;;;;;;;17.40;11.03;;;7.30;1.00;;;;;;5056585;28;20176;-83
2022/03/11 08:51:07;;;;;;;16.87;11.00;;;7.40;1.00;;;;;;5056658;28;20187;-82
2022/03/11 08:53:33;;;;;;;19.43;11.53;;;7.40;1.00;;;;;;5057955;28;20219;-82
2022/03/11 08:55:58;;;;;;;19.30;11.30;;;7.50;1.00;;;;;;5057841;28;20199;-81
2022/03/11 08:58:24;;;;;;;18.23;11.43;;;7.60;1.00;;;;;;5057648;28;20174;-83
2022/03/11 09:00:49;;;;;;;15.70;10.83;;;7.60;1.00;;;;;;5057096;28;20198;-82
2022/03/11 09:03:15;;;;;;;16.73;11.10;;;7.70;1.00;;;;;;5058533;28;20575;-82
2022/03/11 09:05:40;;;;;;;15.67;10.90;;;7.80;1.00;;;;;;5059361;28;20201;-82
2022/03/11 09:08:09;;;;;;;17.03;10.87;;;7.80;1.00;;;;;;5058696;28;20176;-83
2022/03/11 09:10:36;;;;;;;18.00;10.97;;;7.90;1.00;;;;;;5063151;28;20274;-83
2022/03/11 09:13:02;;;;;;;13.40;9.50;;;8.00;1.00;;;;;;5057825;28;20248;-81
2022/03/11 09:15:28;;;;;;;17.00;11.67;;;8.10;1.00;;;;;;5057057;28;20172;-82
2022/03/11 09:17:54;;;;;;;16.07;11.23;;;8.10;1.00;;;;;;5060062;28;20167;-82
2022/03/11 09:20:19;;;;;;;17.80;11.17;;;8.20;1.00;;;;;;5059103;28;20183;-82
2022/03/11 09:22:45;;;;;;;17.23;12.30;;;8.20;1.00;;;;;;5062556;28;20630;-82
2022/03/11 09:25:12;;;;;;;16.87;10.83;;;8.30;1.00;;;;;;5061104;28;20209;-82
2022/03/11 09:27:39;;;;;;;15.60;11.97;;;8.30;1.00;;;;;;5061966;28;20172;-83
2022/03/11 09:30:06;;;;;;;14.87;10.40;;;8.40;1.00;;;;;;5061407;28;20198;-81
2022/03/11 09:32:32;;;;;;;15.70;10.57;;;8.50;1.00;;;;;;5065297;28;20682;-81
2022/03/11 09:34:59;;;;;;;18.97;10.80;;;8.50;1.00;;;;;;5068100;28;20336;-82
2022/03/11 09:37:25;;;;;;;15.00;10.53;;;8.60;1.00;;;;;;5067467;28;20206;-82
2022/03/11 09:39:51;;;;;;;17.53;10.10;;;8.70;1.00;;;;;;5068951;28;20603;-83
2022/03/11 09:42:17;;;;;;;15.00;10.60;;;8.80;1.00;;;;;;5070028;28;20198;-81
2022/03/11 09:44:53;;;;;;;16.13;10.60;;;9.10;1.00;;;;;;5068964;28;20176;-81
2022/03/11 09:47:19;;;;;;;17.50;10.43;;;9.00;1.00;;;;;;5069428;28;20200;-82
2022/03/11 09:49:49;;;;;;;16.93;11.07;;;9.00;1.00;;;;;;5070211;28;20182;-82
2022/03/11 09:52:17;;;;;;;16.10;10.73;;;9.00;1.00;;;;;;5070931;28;20196;-83
2022/03/11 09:54:45;;;;;;;15.40;10.53;;;9.10;1.00;;;;;;5069596;28;20194;-82
2022/03/11 09:57:11;;;;;;;16.83;10.83;;;9.20;1.00;;;;;;5069995;28;20168;-82
2022/03/11 09:59:37;;;;;;;15.90;11.67;;;9.20;1.00;;;;;;5069399;28;20182;-81
2022/03/11 10:02:11;;;;;;;17.80;11.40;;;9.30;1.00;;;;;;5072711;28;20179;-82
2022/03/11 10:04:36;;;;;;;17.07;11.33;;;9.40;1.00;;;;;;5072042;28;20194;-82
2022/03/11 10:07:02;;;;;;;15.53;11.10;;;9.50;1.00;;;;;;5073897;28;20603;-83
2022/03/11 10:09:33;;;;;;;15.97;11.87;;;9.50;1.00;;;;;;5075362;28;20205;-82
2022/03/11 10:12:00;;;;;;;15.37;10.63;;;9.60;1.00;;;;;;5069004;28;20218;-82
2022/03/11 10:14:38;;;;;;;19.07;11.20;;;9.70;1.00;;;;;;5067858;28;20616;-82
2022/03/11 10:17:07;;;;;;;13.87;10.30;;;9.80;1.00;;;;;;5069086;28;20167;-82
2022/03/11 10:19:33;;;;;;;14.57;10.77;;;9.80;1.00;;;;;;5061267;28;20689;-81
2022/03/11 10:22:00;;;;;;;13.40;10.00;;;9.90;1.00;;;;;;5062728;28;20265;-82
2022/03/11 10:24:27;;;;;;;17.00;11.67;;;10.00;1.00;;;;;;5063606;28;20205;-83
2022/03/11 10:26:55;;;;;;;14.87;11.00;;;10.00;1.00;;;;;;5060132;28;20178;-81
2022/03/11 10:29:23;;;;;;;19.23;11.77;;;10.10;1.00;;;;;;5056020;28;20203;-82
2022/03/11 10:31:51;;;;;;;18.70;11.07;;;10.10;1.00;;;;;;5054913;28;20230;-82
2022/03/11 10:34:21;;;;;;;21.90;12.40;;;10.10;1.00;;;;;;5057568;28;20164;-82
2022/03/11 10:36:49;;;;;;;13.57;10.07;;;10.20;1.00;;;;;;5057466;28;20526;-82
2022/03/11 10:39:18;;;;;;;16.03;11.67;;;10.20;1.00;;;;;;5056423;28;20168;-82
2022/03/11 10:41:46;;;;;;;15.70;11.20;;;10.30;1.00;;;;;;5055114;28;20191;-82
2022/03/11 10:44:12;;;;;;;18.07;11.93;;;10.40;1.00;;;;;;5055309;28;20542;-82
2022/03/11 10:46:38;;;;;;;14.70;11.47;;;10.40;1.00;;;;;;5053447;28;20183;-82
2022/03/11 10:49:04;;;;;;;16.00;11.93;;;10.50;1.00;;;;;;5054817;28;20179;-82
2022/03/11 10:51:32;;;;;;;15.00;10.53;;;10.60;1.00;;;;;;5060009;28;20199;-82
2022/03/11 10:54:03;;;;;;;15.03;11.03;;;10.60;1.00;;;;;;5060284;28;20529;-82
2022/03/11 10:56:48;;;;;;;14.50;10.80;;;10.70;1.00;;;;;;5058852;28;20686;-82
2022/03/11 10:59:22;;;;;;;15.63;11.20;;;10.70;1.00;;;;;;5059764;28;20160;-82
2022/03/11 11:01:51;;;;;;;15.53;11.03;;;10.80;1.00;;;;;;5056727;28;20758;-82
2022/03/11 11:04:18;;;;;;;16.70;11.40;;;10.90;1.00;;;;;;5057363;28;20183;-82
2022/03/11 11:06:44;;;;;;;17.07;10.67;;;10.90;1.00;;;;;;5060269;28;20171;-82
2022/03/11 11:09:12;;;;;;;15.23;10.50;;;10.90;1.00;;;;;;5057398;28;20183;-82
2022/03/11 11:11:38;;;;;;;18.73;11.87;;;11.00;1.00;;;;;;5056656;28;20198;-82
2022/03/11 11:14:07;;;;;;;18.67;10.80;;;11.10;1.00;;;;;;5057631;28;20554;-82
2022/03/11 11:16:39;;;;;;;15.60;10.30;;;11.20;1.00;;;;;;5059034;28;20239;-82
2022/03/11 11:19:07;;;;;;;13.60;10.77;;;11.20;1.00;;;;;;5056803;28;20163;-81
2022/03/11 11:21:35;;;;;;;15.50;10.03;;;11.30;1.00;;;;;;5056335;28;20239;-80
2022/03/11 11:24:01;;;;;;;12.40;9.87;;;11.30;1.00;;;;;;5056343;28;20627;-81
2022/03/11 11:26:27;;;;;;;15.03;10.33;;;11.40;1.00;;;;;;5057194;28;20266;-82
2022/03/11 11:28:58;;;;;;;14.40;9.83;;;11.50;1.00;;;;;;5057002;28;20222;-81
2022/03/11 11:31:24;;;;;;;18.27;11.20;;;11.60;99.90;;;;;;5055394;28;20199;-81
2022/03/11 11:33:50;;;;;;;15.57;10.00;;;11.60;99.90;;;;;;5055621;28;20183;-81
2022/03/11 11:36:38;;;;;;;14.37;9.97;;;11.70;99.90;;;;;;5057464;28;20175;-80
2022/03/11 11:39:07;;;;;;;17.20;10.53;;;11.70;99.90;;;;;;5056256;28;20186;-81
2022/03/11 11:41:35;;;;;;;14.70;9.70;;;11.80;1.00;;;;;;5058375;28;20585;-81
2022/03/11 11:44:06;;;;;;;20.10;10.83;;;11.90;99.90;;;;;;5056238;28;20172;-81
2022/03/11 11:46:33;;;;;;;14.53;10.17;;;11.90;99.90;;;;;;5055408;28;20159;-81
2022/03/11 11:49:05;;;;;;;14.47;10.33;;;12.00;99.90;;;;;;5055097;28;20172;-81
2022/03/11 11:51:36;;;;;;;16.70;10.17;;;12.00;1.00;;;;;;5056524;28;20196;-81
2022/03/11 11:54:11;;;;;;;13.43;9.63;;;12.10;99.90;;;;;;5062046;28;20669;-81
2022/03/11 11:57:00;;;;;;;14.87;10.30;;;12.20;99.90;;;;;;5059581;28;20177;-81
2022/03/11 11:59:29;;;;;;;13.40;9.93;;;12.20;99.90;;;;;;5058596;28;20157;-81
2022/03/11 12:01:56;;;;;;;13.07;9.37;;;12.30;99.90;;;;;;5057443;28;20199;-81
2022/03/11 12:04:28;;;;;;;15.17;9.33;;;12.30;99.90;;;;;;5056703;28;20175;-82
2022/03/11 12:07:14;;;;;;;14.13;9.97;;;12.40;99.90;;;;;;5057934;28;20176;-81
2022/03/11 12:09:39;;;;;;;13.87;9.63;;;12.50;99.90;;;;;;5058063;28;20166;-81
2022/03/11 12:12:30;;;;;;;13.47;9.93;;;12.60;99.90;;;;;;5056861;28;20199;-80
2022/03/11 12:15:00;;;;;;;15.80;9.83;;;12.60;99.90;;;;;;5061763;28;20168;-83
2022/03/11 12:17:38;;;;;;;12.73;9.90;;;12.70;99.90;;;;;;5062924;28;20182;-83
2022/03/11 12:20:29;;;;;;;11.97;9.23;;;12.70;99.90;;;;;;5063236;28;20290;-83
2022/03/11 12:22:58;;;;;;;13.73;9.90;;;12.80;99.90;;;;;;5049924;22;20228;-92
2022/03/11 12:25:26;;;;;;;14.43;9.80;;;12.90;99.90;;;;;;5019234;28;20179;-92
2022/03/11 12:28:03;;;;;;;14.00;9.30;;;12.70;99.90;;;;;;5019083;28;20652;-91
2022/03/11 12:30:31;;;;;;;13.60;9.60;;;13.00;99.90;;;;;;5022049;28;20196;-91
2022/03/11 12:33:00;;;;;;;13.40;9.77;;;13.30;99.90;;;;;;5022718;28;20613;-91
2022/03/11 12:35:26;;;;;;;12.87;9.77;;;12.90;99.90;;;;;;5022483;28;20173;-91
2022/03/11 12:37:52;;;;;;;14.03;9.63;;;13.10;99.90;;;;;;5058341;22;20234;-77
2022/03/11 12:40:22;;;;;;;13.00;9.83;;;13.20;99.90;;;;;;5058388;28;20216;-77
2022/03/11 12:42:48;;;;;;;14.40;9.73;;;13.20;99.90;;;;;;5057080;28;20227;-77
2022/03/11 12:45:28;;;;;;;15.43;9.67;;;13.30;99.90;;;;;;5055913;28;20198;-77
2022/03/11 12:47:53;;;;;;;18.23;11.87;;;13.30;99.90;;;;;;5055666;28;20168;-77
2022/03/11 12:50:21;;;;;;;15.13;9.87;;;13.40;99.90;;;;;;5055899;28;20179;-77
2022/03/11 12:52:47;;;;;;;14.13;9.47;;;13.50;99.90;;;;;;5053928;28;20621;-76
2022/03/11 12:55:20;;;;;;;12.23;9.17;;;13.50;99.90;;;;;;5055813;28;20172;-77